createdAt,value
2018-03-03T00:00:47.601Z,99.99
2018-03-03T00:01:47.559Z,99.99
2018-03-03T00:03:40.378Z,99.99
2018-03-03T00:04:40.356Z,99.99
2018-03-03T00:06:33.683Z,99.99
2018-03-03T00:07:33.657Z,99.99
2018-03-03T00:09:26.951Z,99.99
2018-03-03T00:10:26.925Z,99.99
2018-03-03T00:12:20.262Z,99.99
2018-03-03T00:13:20.248Z,99.99
2018-03-03T00:15:13.542Z,99.99
2018-03-03T00:16:13.510Z,99.99
2018-03-03T00:18:06.838Z,99.99
2018-03-03T00:19:06.797Z,99.99
2018-03-03T00:21:00.117Z,99.99
2018-03-03T00:22:00.093Z,99.99
2018-03-03T00:23:52.925Z,99.99
2018-03-03T00:24:52.882Z,99.99
2018-03-03T00:26:46.192Z,99.99
2018-03-03T00:27:46.161Z,99.99
2018-03-03T00:29:39.018Z,99.99
2018-03-03T00:30:38.952Z,99.99
2018-03-03T00:32:32.267Z,99.99
2018-03-03T00:33:32.265Z,99.99
2018-03-03T00:35:25.578Z,99.99
2018-03-03T00:36:25.526Z,99.99
2018-03-03T00:38:18.343Z,99.99
2018-03-03T00:39:18.314Z,99.99
2018-03-03T00:41:12.249Z,99.99
2018-03-03T00:42:11.612Z,99.99
2018-03-03T00:44:04.926Z,99.99
2018-03-03T00:45:04.894Z,99.99
2018-03-03T00:46:58.232Z,99.99
2018-03-03T00:47:58.183Z,99.99
2018-03-03T00:49:51.001Z,99.99
2018-03-03T00:50:50.973Z,99.99
2018-03-03T00:52:44.313Z,99.99
2018-03-03T00:53:44.271Z,99.99
2018-03-03T00:55:37.586Z,99.99
2018-03-03T00:56:37.557Z,99.99
2018-03-03T00:58:30.892Z,99.99
2018-03-03T00:59:30.844Z,99.99
2018-03-03T01:01:23.662Z,99.99
2018-03-03T01:02:23.636Z,99.99
2018-03-03T01:04:16.975Z,99.99
2018-03-03T01:05:16.928Z,99.99
2018-03-03T01:07:10.240Z,99.99
2018-03-03T01:08:10.216Z,99.99
2018-03-03T01:10:03.049Z,99.99
2018-03-03T01:11:03.004Z,99.99
2018-03-03T01:12:55.838Z,99.99
2018-03-03T01:13:55.796Z,99.99
2018-03-03T01:15:48.622Z,99.99
2018-03-03T01:16:48.581Z,99.99
2018-03-03T01:18:41.393Z,99.99
2018-03-03T01:19:41.366Z,99.99
2018-03-03T01:21:34.697Z,99.99
2018-03-03T01:22:34.655Z,99.99
2018-03-03T01:24:27.965Z,99.99
2018-03-03T01:25:27.937Z,99.99
2018-03-03T01:27:21.261Z,99.99
2018-03-03T01:28:21.229Z,99.99
2018-03-03T01:30:14.533Z,99.99
2018-03-03T01:31:14.507Z,99.99
2018-03-03T01:33:07.844Z,99.99
2018-03-03T01:34:07.802Z,99.99
2018-03-03T01:36:01.112Z,99.99
2018-03-03T01:37:01.084Z,99.99
2018-03-03T01:38:54.424Z,99.99
2018-03-03T01:39:54.381Z,99.99
2018-03-03T01:41:47.698Z,99.99
2018-03-03T01:42:47.670Z,99.99
2018-03-03T01:44:41.009Z,99.99
2018-03-03T01:45:40.961Z,99.99
2018-03-03T01:47:33.778Z,99.99
2018-03-03T01:48:33.752Z,99.99
2018-03-03T01:50:27.088Z,99.99
2018-03-03T01:51:27.044Z,99.99
2018-03-03T01:53:19.862Z,99.99
2018-03-03T01:54:19.833Z,99.99
2018-03-03T01:56:13.180Z,99.99
2018-03-03T01:57:13.134Z,99.99
2018-03-03T01:59:05.952Z,99.99
2018-03-03T02:00:05.917Z,99.99
2018-03-03T02:01:58.757Z,99.99
2018-03-03T02:02:58.711Z,99.99
2018-03-03T02:04:51.739Z,99.99
2018-03-03T02:05:51.712Z,99.99
2018-03-03T02:07:44.543Z,99.99
2018-03-03T02:08:44.501Z,99.99
2018-03-03T02:10:37.318Z,99.99
2018-03-03T02:11:37.289Z,99.99
2018-03-03T02:13:30.126Z,99.99
2018-03-03T02:14:30.087Z,99.99
2018-03-03T02:16:23.395Z,99.99
2018-03-03T02:17:23.371Z,99.99
2018-03-03T02:19:16.696Z,99.99
2018-03-03T02:20:16.652Z,99.99
2018-03-03T02:22:09.972Z,99.99
2018-03-03T02:23:09.939Z,99.99
2018-03-03T02:25:02.783Z,99.99
2018-03-03T02:26:02.733Z,99.99
2018-03-03T02:27:56.048Z,99.99
2018-03-03T02:28:56.018Z,99.99
2018-03-03T02:30:49.348Z,99.99
2018-03-03T02:31:49.306Z,99.99
2018-03-03T02:33:42.123Z,99.99
2018-03-03T02:34:42.095Z,99.99
2018-03-03T02:36:35.540Z,99.99
2018-03-03T02:37:35.399Z,99.99
2018-03-03T02:39:28.700Z,99.99
2018-03-03T02:40:28.678Z,99.99
2018-03-03T02:42:22.006Z,99.99
2018-03-03T02:43:21.965Z,99.99
2018-03-03T02:45:14.779Z,99.99
2018-03-03T02:46:14.752Z,99.99
2018-03-03T02:48:08.084Z,99.99
2018-03-03T02:49:08.044Z,99.99
2018-03-03T02:51:01.352Z,99.99
2018-03-03T02:52:01.329Z,99.99
2018-03-03T02:53:54.655Z,99.99
2018-03-03T02:54:54.605Z,99.99
2018-03-03T02:56:47.431Z,99.99
2018-03-03T02:57:47.396Z,99.99
2018-03-03T02:59:40.236Z,99.99
2018-03-03T03:00:40.189Z,99.99
2018-03-03T03:02:33.505Z,99.99
2018-03-03T03:03:33.477Z,99.99
2018-03-03T03:05:26.308Z,99.99
2018-03-03T03:06:26.321Z,99.99
2018-03-03T03:08:19.092Z,99.99
2018-03-03T03:09:19.061Z,99.99
2018-03-03T03:11:12.391Z,99.99
2018-03-03T03:12:12.350Z,99.99
2018-03-03T03:14:05.168Z,99.99
2018-03-03T03:15:05.138Z,99.99
2018-03-03T03:16:57.976Z,99.99
2018-03-03T03:17:57.937Z,99.99
2018-03-03T03:19:51.242Z,99.99
2018-03-03T03:20:51.219Z,99.99
2018-03-03T03:22:44.546Z,99.99
2018-03-03T03:23:44.506Z,99.99
2018-03-03T03:25:37.825Z,99.99
2018-03-03T03:26:37.798Z,99.99
2018-03-03T03:28:31.139Z,99.99
2018-03-03T03:29:31.086Z,99.99
2018-03-03T03:31:24.410Z,99.99
2018-03-03T03:32:24.386Z,99.99
2018-03-03T03:34:17.720Z,99.99
2018-03-03T03:35:17.673Z,99.99
2018-03-03T03:37:10.490Z,99.99
2018-03-03T03:38:10.465Z,99.99
2018-03-03T03:40:03.793Z,99.99
2018-03-03T03:41:03.751Z,99.99
2018-03-03T03:42:57.060Z,99.99
2018-03-03T03:43:57.038Z,99.99
2018-03-03T03:45:50.377Z,99.99
2018-03-03T03:46:50.324Z,99.99
2018-03-03T03:48:43.642Z,99.99
2018-03-03T03:49:43.607Z,99.99
2018-03-03T03:51:36.940Z,99.99
2018-03-03T03:52:36.895Z,99.99
2018-03-03T03:54:30.205Z,99.99
2018-03-03T03:55:30.178Z,99.99
2018-03-03T03:57:23.506Z,99.99
2018-03-03T03:58:23.466Z,99.99
2018-03-03T04:00:16.781Z,99.99
2018-03-03T04:01:16.760Z,99.99
2018-03-03T04:03:10.079Z,99.99
2018-03-03T04:04:10.049Z,99.99
2018-03-03T04:06:03.360Z,99.99
2018-03-03T04:07:03.332Z,99.99
2018-03-03T04:08:56.166Z,99.99
2018-03-03T04:09:56.124Z,99.99
2018-03-03T04:11:48.941Z,99.99
2018-03-03T04:12:48.917Z,99.99
2018-03-03T04:14:42.255Z,99.99
2018-03-03T04:15:42.210Z,99.99
2018-03-03T04:17:35.032Z,99.99
2018-03-03T04:18:35.007Z,99.99
2018-03-03T04:20:28.340Z,99.99
2018-03-03T04:21:28.294Z,99.99
2018-03-03T04:23:21.114Z,99.99
2018-03-03T04:24:21.085Z,99.99
2018-03-03T04:26:13.922Z,99.99
2018-03-03T04:27:13.879Z,99.99
2018-03-03T04:29:06.701Z,99.99
2018-03-03T04:30:06.675Z,99.99
2018-03-03T04:31:59.507Z,99.99
2018-03-03T04:32:59.464Z,99.99
2018-03-03T04:34:52.774Z,99.99
2018-03-03T04:35:52.748Z,99.99
2018-03-03T04:37:46.089Z,99.99
2018-03-03T04:38:46.037Z,99.99
2018-03-03T04:40:39.361Z,99.99
2018-03-03T04:41:39.331Z,99.99
2018-03-03T04:43:32.664Z,99.99
2018-03-03T04:44:32.616Z,99.99
2018-03-03T04:46:25.930Z,99.99
2018-03-03T04:47:25.904Z,99.99
2018-03-03T04:49:19.230Z,99.99
2018-03-03T04:50:19.187Z,99.99
2018-03-03T04:52:12.500Z,99.99
2018-03-03T04:53:12.476Z,99.99
2018-03-03T04:55:05.810Z,99.99
2018-03-03T04:56:05.771Z,99.99
2018-03-03T04:57:59.075Z,99.99
2018-03-03T04:58:59.051Z,99.99
2018-03-03T05:00:51.899Z,99.99
2018-03-03T05:01:51.842Z,99.99
2018-03-03T05:03:45.155Z,99.99
2018-03-03T05:04:45.126Z,99.99
2018-03-03T05:06:37.957Z,99.99
2018-03-03T05:07:37.916Z,99.99
2018-03-03T05:09:31.226Z,99.99
2018-03-03T05:10:31.205Z,99.99
2018-03-03T05:12:24.526Z,99.99
2018-03-03T05:13:24.483Z,99.99
2018-03-03T05:15:17.800Z,99.99
2018-03-03T05:16:17.771Z,99.99
2018-03-03T05:18:11.117Z,99.99
2018-03-03T05:19:11.057Z,99.99
2018-03-03T05:21:04.368Z,99.99
2018-03-03T05:22:04.343Z,99.99
2018-03-03T05:23:57.175Z,99.99
2018-03-03T05:24:57.129Z,99.99
2018-03-03T05:26:49.953Z,99.99
2018-03-03T05:27:49.920Z,99.99
2018-03-03T05:29:43.267Z,99.99
2018-03-03T05:30:43.208Z,99.99
2018-03-03T05:32:36.519Z,99.99
2018-03-03T05:33:36.490Z,99.99
2018-03-03T05:35:29.818Z,99.99
2018-03-03T05:36:29.837Z,99.99
2018-03-03T05:38:22.594Z,99.99
2018-03-03T05:39:22.565Z,99.99
2018-03-03T05:41:15.897Z,99.99
2018-03-03T05:42:15.853Z,99.99
2018-03-03T05:44:09.165Z,99.99
2018-03-03T05:45:09.140Z,99.99
2018-03-03T05:47:02.465Z,99.99
2018-03-03T05:48:02.422Z,99.99
2018-03-03T05:49:55.231Z,99.99
2018-03-03T05:50:55.211Z,99.99
2018-03-03T05:52:48.536Z,99.99
2018-03-03T05:53:48.493Z,99.99
2018-03-03T05:55:41.804Z,99.99
2018-03-03T05:56:41.776Z,99.99
2018-03-03T05:58:35.113Z,99.99
2018-03-03T05:59:35.063Z,99.99
2018-03-03T06:01:27.881Z,99.99
2018-03-03T06:02:27.855Z,99.99
2018-03-03T06:04:20.729Z,99.99
2018-03-03T06:05:20.642Z,99.99
2018-03-03T06:07:13.966Z,99.99
2018-03-03T06:08:13.937Z,99.99
2018-03-03T06:10:07.272Z,99.99
2018-03-03T06:11:07.228Z,99.99
2018-03-03T06:13:00.046Z,99.99
2018-03-03T06:14:00.016Z,99.99
2018-03-03T06:15:52.851Z,99.99
2018-03-03T06:16:52.806Z,99.99
2018-03-03T06:18:46.116Z,99.99
2018-03-03T06:19:46.089Z,99.99
2018-03-03T06:21:39.419Z,99.99
2018-03-03T06:22:39.373Z,99.99
2018-03-03T06:24:32.687Z,99.99
2018-03-03T06:25:32.658Z,99.99
2018-03-03T06:27:25.500Z,99.99
2018-03-03T06:28:25.441Z,99.99
2018-03-03T06:30:18.766Z,99.99
2018-03-03T06:31:18.739Z,99.99
2018-03-03T06:33:11.572Z,99.99
2018-03-03T06:34:11.532Z,99.99
2018-03-03T06:36:04.841Z,99.99
2018-03-03T06:37:04.811Z,99.99
2018-03-03T06:38:57.640Z,99.99
2018-03-03T06:39:57.597Z,99.99
2018-03-03T06:41:50.907Z,99.99
2018-03-03T06:42:50.882Z,99.99
2018-03-03T06:44:43.716Z,99.99
2018-03-03T06:45:43.671Z,99.99
2018-03-03T06:47:36.981Z,99.99
2018-03-03T06:48:36.956Z,99.99
2018-03-03T06:50:29.783Z,99.99
2018-03-03T06:51:29.737Z,99.99
2018-03-03T06:53:22.563Z,99.99
2018-03-03T06:54:22.532Z,99.99
2018-03-03T06:56:16.859Z,99.99
2018-03-03T06:57:16.818Z,99.99
2018-03-03T06:59:10.130Z,99.99
2018-03-03T07:00:10.105Z,99.99
2018-03-03T07:02:03.442Z,99.99
2018-03-03T07:03:03.392Z,99.99
2018-03-03T07:04:56.698Z,99.99
2018-03-03T07:05:56.670Z,99.99
2018-03-03T07:07:50.013Z,99.99
2018-03-03T07:08:49.961Z,99.99
2018-03-03T07:10:42.773Z,99.99
2018-03-03T07:11:42.744Z,99.99
2018-03-03T07:13:36.071Z,99.99
2018-03-03T07:14:36.028Z,99.99
2018-03-03T07:16:29.842Z,99.99
2018-03-03T07:17:29.810Z,99.99
2018-03-03T07:19:23.137Z,99.99
2018-03-03T07:20:23.097Z,99.99
2018-03-03T07:22:15.961Z,99.99
2018-03-03T07:23:15.881Z,99.99
2018-03-03T07:25:08.716Z,99.99
2018-03-03T07:26:08.674Z,99.99
2018-03-03T07:28:01.493Z,99.99
2018-03-03T07:29:01.464Z,99.99
2018-03-03T07:30:54.791Z,99.99
2018-03-03T07:31:54.749Z,99.99
2018-03-03T07:33:48.063Z,99.99
2018-03-03T07:34:48.034Z,99.99
2018-03-03T07:36:40.865Z,99.99
2018-03-03T07:37:40.822Z,99.99
2018-03-03T07:39:35.131Z,99.99
2018-03-03T07:40:35.109Z,99.99
2018-03-03T07:42:28.457Z,99.99
2018-03-03T07:43:28.383Z,99.99
2018-03-03T07:45:21.216Z,99.99
2018-03-03T07:46:21.181Z,99.99
2018-03-03T07:48:14.509Z,99.99
2018-03-03T07:49:14.463Z,99.99
2018-03-03T07:51:07.280Z,99.99
2018-03-03T07:52:07.256Z,99.99
2018-03-03T07:54:00.582Z,99.99
2018-03-03T07:55:00.541Z,99.99
2018-03-03T07:56:53.356Z,99.99
2018-03-03T07:57:53.329Z,99.99
2018-03-03T07:59:46.174Z,99.99
2018-03-03T08:00:46.123Z,99.99
2018-03-03T08:02:38.993Z,99.99
2018-03-03T08:03:38.910Z,99.99
2018-03-03T08:05:31.747Z,99.99
2018-03-03T08:06:31.702Z,99.99
2018-03-03T08:08:24.516Z,99.99
2018-03-03T08:09:24.504Z,99.99
2018-03-03T08:11:17.826Z,99.99
2018-03-03T08:12:17.780Z,99.99
2018-03-03T08:14:11.096Z,99.99
2018-03-03T08:15:11.069Z,99.99
2018-03-03T08:17:03.906Z,99.99
2018-03-03T08:18:03.863Z,99.99
2018-03-03T08:19:57.169Z,99.99
2018-03-03T08:20:57.183Z,99.99
2018-03-03T08:22:49.976Z,99.99
2018-03-03T08:23:49.936Z,99.99
2018-03-03T08:25:43.243Z,99.99
2018-03-03T08:26:43.218Z,99.99
2018-03-03T08:28:36.548Z,99.99
2018-03-03T08:29:36.504Z,99.99
2018-03-03T08:31:29.817Z,99.99
2018-03-03T08:32:29.794Z,99.99
2018-03-03T08:34:22.627Z,99.99
2018-03-03T08:35:22.589Z,99.99
2018-03-03T08:37:15.404Z,99.99
2018-03-03T08:38:15.378Z,99.99
2018-03-03T08:40:08.222Z,99.99
2018-03-03T08:41:08.169Z,99.99
2018-03-03T08:43:00.989Z,99.99
2018-03-03T08:44:00.967Z,99.99
2018-03-03T08:45:54.300Z,99.99
2018-03-03T08:46:54.260Z,99.99
2018-03-03T08:48:47.568Z,99.99
2018-03-03T08:49:47.540Z,99.99
2018-03-03T08:51:40.404Z,99.99
2018-03-03T08:52:40.361Z,99.99
2018-03-03T08:54:33.674Z,99.99
2018-03-03T08:55:33.646Z,99.99
2018-03-03T08:57:26.984Z,99.99
2018-03-03T08:58:26.930Z,99.99
2018-03-03T09:00:20.243Z,99.99
2018-03-03T09:01:20.220Z,99.99
2018-03-03T09:03:13.548Z,99.99
2018-03-03T09:04:13.505Z,99.99
2018-03-03T09:06:06.822Z,99.99
2018-03-03T09:07:06.794Z,99.99
2018-03-03T09:08:59.644Z,99.99
2018-03-03T09:09:59.599Z,99.99
2018-03-03T09:11:52.900Z,99.99
2018-03-03T09:12:52.872Z,99.99
2018-03-03T09:14:45.720Z,99.99
2018-03-03T09:15:45.678Z,99.99
2018-03-03T09:17:38.496Z,99.99
2018-03-03T09:18:38.467Z,99.99
2018-03-03T09:20:31.798Z,99.99
2018-03-03T09:21:31.758Z,99.99
2018-03-03T09:23:25.089Z,99.99
2018-03-03T09:24:25.065Z,99.99
2018-03-03T09:26:19.382Z,99.99
2018-03-03T09:27:19.342Z,99.99
2018-03-03T09:29:12.651Z,99.99
2018-03-03T09:30:12.626Z,99.99
2018-03-03T09:32:05.954Z,99.99
2018-03-03T09:33:05.917Z,99.99
2018-03-03T09:34:59.232Z,99.99
2018-03-03T09:35:59.202Z,99.99
2018-03-03T09:37:53.535Z,99.99
2018-03-03T09:38:53.491Z,99.99
2018-03-03T09:40:46.313Z,99.99
2018-03-03T09:41:46.285Z,99.99
2018-03-03T09:43:40.613Z,99.99
2018-03-03T09:44:40.574Z,99.99
2018-03-03T09:46:33.393Z,99.99
2018-03-03T09:47:33.373Z,99.99
2018-03-03T09:49:26.695Z,99.99
2018-03-03T09:50:26.653Z,99.99
2018-03-03T09:52:20.975Z,99.99
2018-03-03T09:53:20.943Z,99.99
2018-03-03T09:55:14.274Z,99.99
2018-03-03T09:56:14.241Z,99.99
2018-03-03T09:58:07.557Z,99.99
2018-03-03T09:59:07.532Z,99.99
2018-03-03T10:01:00.377Z,99.99
2018-03-03T10:02:06.291Z,99.99
2018-03-03T10:03:53.152Z,99.99
2018-03-03T10:04:53.120Z,99.99
2018-03-03T10:06:46.455Z,99.99
2018-03-03T10:07:46.413Z,99.99
2018-03-03T10:09:39.227Z,99.99
2018-03-03T10:10:39.205Z,99.99
2018-03-03T10:12:32.561Z,99.99
2018-03-03T10:13:32.499Z,99.99
2018-03-03T10:15:25.815Z,99.99
2018-03-03T10:16:25.792Z,99.99
2018-03-03T10:18:18.628Z,99.99
2018-03-03T10:19:18.581Z,99.99
2018-03-03T10:21:11.403Z,99.99
2018-03-03T10:22:11.390Z,99.99
2018-03-03T10:24:04.226Z,99.99
2018-03-03T10:25:04.173Z,99.99
2018-03-03T10:26:57.002Z,99.99
2018-03-03T10:27:57.000Z,99.99
2018-03-03T10:29:50.309Z,99.99
2018-03-03T10:30:50.267Z,99.99
2018-03-03T10:32:43.592Z,99.99
2018-03-03T10:33:43.570Z,99.99
2018-03-03T10:35:36.417Z,99.99
2018-03-03T10:36:36.374Z,99.99
2018-03-03T10:38:29.699Z,99.99
2018-03-03T10:39:29.675Z,99.99
2018-03-03T10:41:22.608Z,99.99
2018-03-03T10:42:22.531Z,99.99
2018-03-03T10:44:16.796Z,99.99
2018-03-03T10:45:16.783Z,99.99
2018-03-03T10:47:10.116Z,99.99
2018-03-03T10:48:10.105Z,99.99
2018-03-03T10:50:02.936Z,99.99
2018-03-03T10:51:02.899Z,99.99
2018-03-03T10:52:56.227Z,99.99
2018-03-03T10:53:56.190Z,99.99
2018-03-03T10:55:49.019Z,99.99
2018-03-03T10:56:48.992Z,99.99
2018-03-03T10:58:42.339Z,99.99
2018-03-03T10:59:42.318Z,99.99
2018-03-03T11:01:35.119Z,99.99
2018-03-03T11:02:35.086Z,99.99
2018-03-03T11:04:27.929Z,99.99
2018-03-03T11:05:27.891Z,99.99
2018-03-03T11:07:20.718Z,99.99
2018-03-03T11:08:20.693Z,99.99
2018-03-03T11:10:13.534Z,99.99
2018-03-03T11:11:13.492Z,99.99
2018-03-03T11:13:06.322Z,99.99
2018-03-03T11:14:06.286Z,99.99
2018-03-03T11:15:59.733Z,99.99
2018-03-03T11:16:59.592Z,99.99
2018-03-03T11:18:52.415Z,99.99
2018-03-03T11:19:52.381Z,99.99
2018-03-03T11:21:45.222Z,99.99
2018-03-03T11:22:45.199Z,99.99
2018-03-03T11:24:38.004Z,99.99
2018-03-03T11:25:37.993Z,99.99
2018-03-03T11:27:30.823Z,99.99
2018-03-03T11:28:30.788Z,99.99
2018-03-03T11:30:23.608Z,99.99
2018-03-03T11:31:23.583Z,99.99
2018-03-03T11:33:16.421Z,99.99
2018-03-03T11:34:16.419Z,99.99
2018-03-03T11:36:09.211Z,99.99
2018-03-03T11:37:09.189Z,99.99
2018-03-03T11:39:02.043Z,99.99
2018-03-03T11:40:01.997Z,99.99
2018-03-03T11:41:54.833Z,99.99
2018-03-03T11:42:54.802Z,99.99
2018-03-03T11:44:47.645Z,99.99
2018-03-03T11:45:47.605Z,99.99
2018-03-03T11:47:40.432Z,99.99
2018-03-03T11:48:40.408Z,99.99
2018-03-03T11:50:33.249Z,99.99
2018-03-03T11:51:33.207Z,99.99
2018-03-03T11:53:26.042Z,99.99
2018-03-03T11:54:26.020Z,99.99
2018-03-03T11:56:18.866Z,99.99
2018-03-03T11:57:18.822Z,99.99
2018-03-03T11:59:11.655Z,99.99
2018-03-03T12:00:11.630Z,99.99
2018-03-03T12:02:04.473Z,99.99
2018-03-03T12:03:04.437Z,99.99
2018-03-03T12:04:57.763Z,99.99
2018-03-03T12:05:57.743Z,99.99
2018-03-03T12:07:50.587Z,99.99
2018-03-03T12:08:50.541Z,99.99
2018-03-03T12:10:43.872Z,99.99
2018-03-03T12:11:43.866Z,99.99
2018-03-03T12:13:36.681Z,99.99
2018-03-03T12:14:36.647Z,99.99
2018-03-03T12:16:29.471Z,99.99
2018-03-03T12:17:29.450Z,99.99
2018-03-03T12:19:22.291Z,99.99
2018-03-03T12:20:22.244Z,99.99
2018-03-03T12:22:15.603Z,99.99
2018-03-03T12:23:15.556Z,99.99
2018-03-03T12:25:08.903Z,99.99
2018-03-03T12:26:08.861Z,99.99
2018-03-03T12:28:02.213Z,99.99
2018-03-03T12:29:02.174Z,99.99
2018-03-03T12:30:56.526Z,99.99
2018-03-03T12:31:56.491Z,99.99
2018-03-03T12:33:49.863Z,99.99
2018-03-03T12:34:49.788Z,99.99
2018-03-03T12:36:43.152Z,98.36
2018-03-03T12:37:43.100Z,96.84
2018-03-03T12:39:36.406Z,93.65
2018-03-03T12:40:36.400Z,91.98
2018-03-03T12:42:29.793Z,86.21
2018-03-03T12:43:29.711Z,84.97
2018-03-03T12:45:23.096Z,79.10
2018-03-03T12:46:23.045Z,76.71
2018-03-03T12:48:16.430Z,71.92
2018-03-03T12:49:16.401Z,70.67
2018-03-03T12:51:09.750Z,68.54
2018-03-03T12:52:09.739Z,70.16
2018-03-03T12:54:02.590Z,70.79
2018-03-03T12:55:02.581Z,73.08
2018-03-03T12:56:55.922Z,73.47
2018-03-03T12:57:55.914Z,74.32
2018-03-03T12:59:49.275Z,74.42
2018-03-03T13:00:49.250Z,73.94
2018-03-03T13:02:42.627Z,74.67
2018-03-03T13:03:42.596Z,75.53
2018-03-03T13:05:35.982Z,75.72
2018-03-03T13:06:35.931Z,74.23
2018-03-03T13:08:29.288Z,74.90
2018-03-03T13:09:29.270Z,74.29
2018-03-03T13:11:22.654Z,74.80
2018-03-03T13:12:22.601Z,73.56
2018-03-03T13:14:15.967Z,72.89
2018-03-03T13:15:15.951Z,73.28
2018-03-03T13:17:09.312Z,71.94
2018-03-03T13:18:09.287Z,73.03
2018-03-03T13:20:02.123Z,71.08
2018-03-03T13:21:02.118Z,72.36
2018-03-03T13:22:55.490Z,70.16
2018-03-03T13:23:55.437Z,69.78
2018-03-03T13:25:48.795Z,68.96
2018-03-03T13:26:48.789Z,67.52
2018-03-03T13:28:42.151Z,66.28
2018-03-03T13:29:42.118Z,64.98
2018-03-03T13:31:34.975Z,61.38
2018-03-03T13:32:34.960Z,60.61
2018-03-03T13:34:28.339Z,58.44
2018-03-03T13:35:28.306Z,58.15
2018-03-03T13:37:21.646Z,57.13
2018-03-03T13:38:21.646Z,56.37
2018-03-03T13:40:15.000Z,55.98
2018-03-03T13:41:14.968Z,56.15
2018-03-03T13:43:09.321Z,57.36
2018-03-03T13:44:09.304Z,57.55
2018-03-03T13:46:02.660Z,59.08
2018-03-03T13:47:02.632Z,58.98
2018-03-03T13:48:55.985Z,58.86
2018-03-03T13:49:55.980Z,59.63
2018-03-03T13:51:49.332Z,60.49
2018-03-03T13:52:49.313Z,60.10
2018-03-03T13:54:42.164Z,59.98
2018-03-03T13:55:42.138Z,62.18
2018-03-03T13:57:36.525Z,61.13
2018-03-03T13:58:36.479Z,62.05
2018-03-03T14:00:29.827Z,64.15
2018-03-03T14:01:29.826Z,62.40
2018-03-03T14:03:23.191Z,66.50
2018-03-03T14:04:23.166Z,66.41
2018-03-03T14:06:16.490Z,65.20
2018-03-03T14:07:16.499Z,64.91
2018-03-03T14:09:09.847Z,65.26
2018-03-03T14:10:09.818Z,64.12
2018-03-03T14:12:03.166Z,64.81
2018-03-03T14:13:03.161Z,64.69
2018-03-03T14:14:56.528Z,64.62
2018-03-03T14:15:56.493Z,64.31
2018-03-03T14:17:49.848Z,65.45
2018-03-03T14:18:49.828Z,65.80
2018-03-03T14:20:42.700Z,70.53
2018-03-03T14:21:42.669Z,74.31
2018-03-03T14:23:36.013Z,79.22
2018-03-03T14:24:36.008Z,80.75
2018-03-03T14:26:29.361Z,82.84
2018-03-03T14:27:29.322Z,84.42
2018-03-03T14:29:22.754Z,85.37
2018-03-03T14:30:22.650Z,88.32
2018-03-03T14:32:15.520Z,92.84
2018-03-03T14:33:15.489Z,94.37
2018-03-03T14:35:08.340Z,96.36
2018-03-03T14:36:08.322Z,96.55
2018-03-03T14:38:01.194Z,98.69
2018-03-03T14:39:01.745Z,99.99
2018-03-03T14:40:54.501Z,99.07
2018-03-03T14:41:54.479Z,99.99
2018-03-03T14:43:47.841Z,99.99
2018-03-03T14:44:47.805Z,99.99
2018-03-03T14:46:41.152Z,99.99
2018-03-03T14:47:41.129Z,99.99
2018-03-03T14:49:34.495Z,99.99
2018-03-03T14:50:34.468Z,99.99
2018-03-03T14:52:27.320Z,99.99
2018-03-03T14:53:27.301Z,99.99
2018-03-03T14:55:20.180Z,99.99
2018-03-03T14:56:20.142Z,99.99
2018-03-03T14:58:13.489Z,99.99
2018-03-03T14:59:13.464Z,99.99
2018-03-03T15:01:06.335Z,99.99
2018-03-03T15:02:06.295Z,99.99
2018-03-03T15:03:59.644Z,99.99
2018-03-03T15:04:59.625Z,99.99
2018-03-03T15:06:52.990Z,99.99
2018-03-03T15:07:52.960Z,99.99
2018-03-03T15:09:46.286Z,99.99
2018-03-03T15:10:46.265Z,99.99
2018-03-03T15:12:39.631Z,99.99
2018-03-03T15:13:39.636Z,99.99
2018-03-03T15:15:32.478Z,99.99
2018-03-03T15:16:32.456Z,99.99
2018-03-03T15:18:25.837Z,99.99
2018-03-03T15:19:25.829Z,99.99
2018-03-03T15:21:19.132Z,99.99
2018-03-03T15:22:19.108Z,99.99
2018-03-03T15:24:12.460Z,99.99
2018-03-03T15:25:12.424Z,99.99
2018-03-03T15:27:05.768Z,99.99
2018-03-03T15:28:05.746Z,99.99
2018-03-03T15:29:59.109Z,99.99
2018-03-03T15:30:59.019Z,99.99
2018-03-03T15:32:52.354Z,99.99
2018-03-03T15:33:52.319Z,99.99
2018-03-03T15:35:45.166Z,99.99
2018-03-03T15:36:45.129Z,99.99
2018-03-03T15:38:38.457Z,99.99
2018-03-03T15:39:38.454Z,99.99
2018-03-03T15:41:31.776Z,99.99
2018-03-03T15:42:31.738Z,99.99
2018-03-03T15:44:25.073Z,99.99
2018-03-03T15:45:25.049Z,99.99
2018-03-03T15:47:18.381Z,99.99
2018-03-03T15:48:18.347Z,99.99
2018-03-03T15:50:11.193Z,99.99
2018-03-03T15:51:11.184Z,99.99
2018-03-03T15:53:04.511Z,99.99
2018-03-03T15:54:04.483Z,99.99
2018-03-03T15:55:57.818Z,99.99
2018-03-03T15:56:57.778Z,99.99
2018-03-03T15:58:51.139Z,99.99
2018-03-03T15:59:51.090Z,99.99
2018-03-03T16:01:43.931Z,99.99
2018-03-03T16:02:43.924Z,99.99
2018-03-03T16:04:37.281Z,99.99
2018-03-03T16:05:37.217Z,99.99
2018-03-03T16:07:30.654Z,99.99
2018-03-03T16:08:30.530Z,99.99
2018-03-03T16:10:23.964Z,99.99
2018-03-03T16:11:23.881Z,99.99
2018-03-03T16:13:17.204Z,99.99
2018-03-03T16:14:17.210Z,99.99
2018-03-03T16:16:10.567Z,99.99
2018-03-03T16:17:10.531Z,99.99
2018-03-03T16:19:03.808Z,99.99
2018-03-03T16:20:03.788Z,99.99
2018-03-03T16:21:57.128Z,99.99
2018-03-03T16:22:57.095Z,99.99
2018-03-03T16:24:50.421Z,99.99
2018-03-03T16:25:50.392Z,99.99
2018-03-03T16:27:43.736Z,99.99
2018-03-03T16:28:43.681Z,99.99
2018-03-03T16:30:37.007Z,99.99
2018-03-03T16:31:36.980Z,99.99
2018-03-03T16:33:30.365Z,99.99
2018-03-03T16:34:30.293Z,99.99
2018-03-03T16:36:23.129Z,99.99
2018-03-03T16:37:23.085Z,99.99
2018-03-03T16:39:15.928Z,99.99
2018-03-03T16:40:15.897Z,99.99
2018-03-03T16:42:08.713Z,99.99
2018-03-03T16:43:08.696Z,99.99
2018-03-03T16:45:02.056Z,99.99
2018-03-03T16:46:01.987Z,99.99
2018-03-03T16:47:55.326Z,99.99
2018-03-03T16:48:55.374Z,99.99
2018-03-03T16:50:48.135Z,99.99
2018-03-03T16:51:48.123Z,99.99
2018-03-03T16:53:41.426Z,99.99
2018-03-03T16:54:41.381Z,99.99
2018-03-03T16:56:34.726Z,99.99
2018-03-03T16:57:34.719Z,99.99
2018-03-03T16:59:28.051Z,99.99
2018-03-03T17:00:28.002Z,99.99
2018-03-03T17:02:21.437Z,99.99
2018-03-03T17:03:21.306Z,99.99
2018-03-03T17:05:14.618Z,99.99
2018-03-03T17:06:14.638Z,99.99
2018-03-03T17:08:07.938Z,99.99
2018-03-03T17:09:07.879Z,99.99
2018-03-03T17:11:01.282Z,99.99
2018-03-03T17:12:01.224Z,99.99
2018-03-03T17:13:54.544Z,99.99
2018-03-03T17:14:54.523Z,99.99
2018-03-03T17:16:47.834Z,99.99
2018-03-03T17:17:47.837Z,99.99
2018-03-03T17:19:41.156Z,99.99
2018-03-03T17:20:41.115Z,99.99
2018-03-03T17:22:34.430Z,99.99
2018-03-03T17:23:34.400Z,99.99
2018-03-03T17:25:27.752Z,99.99
2018-03-03T17:26:27.714Z,99.99
2018-03-03T17:28:21.036Z,99.99
2018-03-03T17:29:21.060Z,99.99
2018-03-03T17:31:14.354Z,99.99
2018-03-03T17:32:14.325Z,99.99
2018-03-03T17:34:07.628Z,99.99
2018-03-03T17:35:07.604Z,99.99
2018-03-03T17:37:00.969Z,99.99
2018-03-03T17:38:00.924Z,99.99
2018-03-03T17:39:54.263Z,99.99
2018-03-03T17:40:54.213Z,99.99
2018-03-03T17:42:47.541Z,99.99
2018-03-03T17:43:47.499Z,99.99
2018-03-03T17:45:40.828Z,99.99
2018-03-03T17:46:40.800Z,99.99
2018-03-03T17:48:33.642Z,99.99
2018-03-03T17:49:33.600Z,99.99
2018-03-03T17:51:26.418Z,99.99
2018-03-03T17:52:26.405Z,99.99
2018-03-03T17:54:19.257Z,99.99
2018-03-03T17:55:19.200Z,99.99
2018-03-03T17:57:12.519Z,99.99
2018-03-03T17:58:12.509Z,99.99
2018-03-03T18:00:05.838Z,99.99
2018-03-03T18:01:05.795Z,99.99
2018-03-03T18:02:59.122Z,99.99
2018-03-03T18:03:59.097Z,99.99
2018-03-03T18:05:52.432Z,99.99
2018-03-03T18:06:52.394Z,99.99
2018-03-03T18:08:45.711Z,99.99
2018-03-03T18:09:45.696Z,99.99
2018-03-03T18:11:39.026Z,99.99
2018-03-03T18:12:38.982Z,99.99
2018-03-03T18:14:32.300Z,99.99
2018-03-03T18:15:32.287Z,99.99
2018-03-03T18:17:25.612Z,99.99
2018-03-03T18:18:25.570Z,99.99
2018-03-03T18:20:18.879Z,99.99
2018-03-03T18:21:18.862Z,99.99
2018-03-03T18:23:12.200Z,99.99
2018-03-03T18:24:12.192Z,99.99
2018-03-03T18:26:05.463Z,99.99
2018-03-03T18:27:05.447Z,99.99
2018-03-03T18:28:58.777Z,99.99
2018-03-03T18:29:58.790Z,99.99
2018-03-03T18:31:52.072Z,99.99
2018-03-03T18:32:52.040Z,99.99
2018-03-03T18:34:45.385Z,99.99